Terminal Aerodrome Forecast
Issued by NWS

Home | Current Version | Previous Version | Text Only | Print | Product List | Glossary Off
Versions: 1 2 3 4 5 6 7 8 9 10 11 12 13 14

000
FTUS43 KTOP 140200 AAB
TAFFOE
TAF AMD
KFOE 140226Z 1402/1424 35020G30KT 3SM -RASN OVC010
      TEMPO 1402/1406 BKN008
     FM141100 34018G25KT 4SM -SN OVC010
     FM141600 34015G22KT P6SM BKN035=

USA.gov is the U.S. government's official web portal to all federal, state and local government web resources and services.